sensor_id;sensor_type;location;lat;lon;timestamp;P1;durP1;ratioP1;P2;durP2;ratioP2
35648;SDS011;21768;48.562;13.414;2024-02-14T00:00:11;9.25;;;4.57;;
35648;SDS011;21768;48.562;13.414;2024-02-14T00:02:41;10.10;;;5.03;;
35648;SDS011;21768;48.562;13.414;2024-02-14T00:05:08;13.82;;;5.00;;
35648;SDS011;21768;48.562;13.414;2024-02-14T00:07:36;12.93;;;5.13;;
35648;SDS011;21768;48.562;13.414;2024-02-14T00:10:02;11.32;;;5.43;;
35648;SDS011;21768;48.562;13.414;2024-02-14T00:12:28;11.27;;;5.18;;
35648;SDS011;21768;48.562;13.414;2024-02-14T00:14:54;11.93;;;4.63;;
35648;SDS011;21768;48.562;13.414;2024-02-14T00:17:19;14.50;;;4.97;;
35648;SDS011;21768;48.562;13.414;2024-02-14T00:19:46;8.80;;;4.65;;
35648;SDS011;21768;48.562;13.414;2024-02-14T00:22:12;13.90;;;5.05;;
35648;SDS011;21768;48.562;13.414;2024-02-14T00:24:37;10.40;;;4.50;;
35648;SDS011;21768;48.562;13.414;2024-02-14T00:27:03;11.45;;;5.05;;
35648;SDS011;21768;48.562;13.414;2024-02-14T00:29:29;10.98;;;5.00;;
35648;SDS011;21768;48.562;13.414;2024-02-14T00:31:55;10.85;;;4.35;;
35648;SDS011;21768;48.562;13.414;2024-02-14T00:34:21;11.32;;;5.10;;
35648;SDS011;21768;48.562;13.414;2024-02-14T00:36:46;11.32;;;4.68;;
35648;SDS011;21768;48.562;13.414;2024-02-14T00:39:12;9.05;;;4.88;;
35648;SDS011;21768;48.562;13.414;2024-02-14T00:41:38;11.15;;;4.38;;
35648;SDS011;21768;48.562;13.414;2024-02-14T00:44:03;10.05;;;4.82;;
35648;SDS011;21768;48.562;13.414;2024-02-14T00:46:29;11.85;;;5.60;;
35648;SDS011;21768;48.562;13.414;2024-02-14T00:48:55;13.27;;;4.38;;
35648;SDS011;21768;48.562;13.414;2024-02-14T00:51:21;10.63;;;4.97;;
35648;SDS011;21768;48.562;13.414;2024-02-14T00:53:47;11.20;;;5.28;;
35648;SDS011;21768;48.562;13.414;2024-02-14T00:56:12;11.50;;;4.82;;
35648;SDS011;21768;48.562;13.414;2024-02-14T00:58:38;13.57;;;4.75;;
35648;SDS011;21768;48.562;13.414;2024-02-14T01:01:04;10.40;;;5.03;;
35648;SDS011;21768;48.562;13.414;2024-02-14T01:03:30;9.38;;;4.65;;
35648;SDS011;21768;48.562;13.414;2024-02-14T01:05:56;13.70;;;5.10;;
35648;SDS011;21768;48.562;13.414;2024-02-14T01:08:22;15.05;;;5.63;;
35648;SDS011;21768;48.562;13.414;2024-02-14T01:10:48;12.93;;;4.50;;
35648;SDS011;21768;48.562;13.414;2024-02-14T01:13:17;13.43;;;4.72;;
35648;SDS011;21768;48.562;13.414;2024-02-14T01:15:43;11.18;;;5.00;;
35648;SDS011;21768;48.562;13.414;2024-02-14T01:18:09;13.38;;;4.32;;
35648;SDS011;21768;48.562;13.414;2024-02-14T01:20:35;16.67;;;5.13;;
35648;SDS011;21768;48.562;13.414;2024-02-14T01:23:02;14.13;;;5.20;;
35648;SDS011;21768;48.562;13.414;2024-02-14T01:25:28;12.02;;;5.10;;
35648;SDS011;21768;48.562;13.414;2024-02-14T01:27:53;13.25;;;5.00;;
35648;SDS011;21768;48.562;13.414;2024-02-14T01:30:19;9.15;;;4.97;;
35648;SDS011;21768;48.562;13.414;2024-02-14T01:32:45;10.10;;;5.22;;
35648;SDS011;21768;48.562;13.414;2024-02-14T01:35:11;13.88;;;5.10;;
35648;SDS011;21768;48.562;13.414;2024-02-14T01:37:38;9.55;;;5.00;;
35648;SDS011;21768;48.562;13.414;2024-02-14T01:40:04;12.90;;;4.82;;
35648;SDS011;21768;48.562;13.414;2024-02-14T01:42:32;10.77;;;5.40;;
35648;SDS011;21768;48.562;13.414;2024-02-14T01:44:58;11.18;;;5.05;;
35648;SDS011;21768;48.562;13.414;2024-02-14T01:47:24;8.52;;;4.65;;
35648;SDS011;21768;48.562;13.414;2024-02-14T01:49:49;15.63;;;4.88;;
35648;SDS011;21768;48.562;13.414;2024-02-14T01:52:15;15.02;;;5.15;;
35648;SDS011;21768;48.562;13.414;2024-02-14T01:54:41;13.23;;;5.32;;
35648;SDS011;21768;48.562;13.414;2024-02-14T01:57:08;12.40;;;5.35;;
35648;SDS011;21768;48.562;13.414;2024-02-14T01:59:35;16.15;;;5.75;;
35648;SDS011;21768;48.562;13.414;2024-02-14T02:02:02;11.15;;;5.28;;
35648;SDS011;21768;48.562;13.414;2024-02-14T02:04:28;13.43;;;6.13;;
35648;SDS011;21768;48.562;13.414;2024-02-14T02:06:53;15.65;;;5.88;;
35648;SDS011;21768;48.562;13.414;2024-02-14T02:09:21;12.50;;;5.10;;
35648;SDS011;21768;48.562;13.414;2024-02-14T02:11:48;13.15;;;5.38;;
35648;SDS011;21768;48.562;13.414;2024-02-14T02:14:21;15.68;;;5.53;;
35648;SDS011;21768;48.562;13.414;2024-02-14T02:16:50;14.10;;;5.05;;
35648;SDS011;21768;48.562;13.414;2024-02-14T02:19:15;11.07;;;5.10;;
35648;SDS011;21768;48.562;13.414;2024-02-14T02:21:42;10.77;;;5.20;;
35648;SDS011;21768;48.562;13.414;2024-02-14T02:24:12;13.85;;;5.00;;
35648;SDS011;21768;48.562;13.414;2024-02-14T02:26:37;12.10;;;4.88;;
35648;SDS011;21768;48.562;13.414;2024-02-14T02:29:04;11.48;;;5.53;;
35648;SDS011;21768;48.562;13.414;2024-02-14T02:31:30;11.10;;;5.53;;
35648;SDS011;21768;48.562;13.414;2024-02-14T02:33:57;9.30;;;5.00;;
35648;SDS011;21768;48.562;13.414;2024-02-14T02:36:23;14.82;;;5.13;;
35648;SDS011;21768;48.562;13.414;2024-02-14T02:38:49;11.70;;;5.05;;
35648;SDS011;21768;48.562;13.414;2024-02-14T02:41:16;8.63;;;4.80;;
35648;SDS011;21768;48.562;13.414;2024-02-14T02:43:42;6.97;;;4.63;;
35648;SDS011;21768;48.562;13.414;2024-02-14T02:46:11;10.00;;;4.90;;
35648;SDS011;21768;48.562;13.414;2024-02-14T02:48:37;14.88;;;4.80;;
35648;SDS011;21768;48.562;13.414;2024-02-14T02:51:03;9.93;;;4.57;;
35648;SDS011;21768;48.562;13.414;2024-02-14T02:53:29;10.85;;;4.88;;
35648;SDS011;21768;48.562;13.414;2024-02-14T02:55:54;12.60;;;5.63;;
35648;SDS011;21768;48.562;13.414;2024-02-14T02:58:22;9.82;;;4.68;;
35648;SDS011;21768;48.562;13.414;2024-02-14T03:00:47;8.60;;;4.53;;
35648;SDS011;21768;48.562;13.414;2024-02-14T03:03:16;8.77;;;4.68;;
35648;SDS011;21768;48.562;13.414;2024-02-14T03:05:42;7.85;;;4.78;;
35648;SDS011;21768;48.562;13.414;2024-02-14T03:08:09;6.45;;;3.83;;
35648;SDS011;21768;48.562;13.414;2024-02-14T03:10:41;8.98;;;4.28;;
35648;SDS011;21768;48.562;13.414;2024-02-14T03:13:07;10.13;;;4.43;;
35648;SDS011;21768;48.562;13.414;2024-02-14T03:15:39;7.72;;;4.40;;
35648;SDS011;21768;48.562;13.414;2024-02-14T03:18:06;16.40;;;4.80;;
35648;SDS011;21768;48.562;13.414;2024-02-14T03:20:35;9.52;;;4.90;;
35648;SDS011;21768;48.562;13.414;2024-02-14T03:23:02;7.20;;;4.15;;
35648;SDS011;21768;48.562;13.414;2024-02-14T03:25:29;8.48;;;4.88;;
35648;SDS011;21768;48.562;13.414;2024-02-14T03:27:55;7.95;;;4.57;;
35648;SDS011;21768;48.562;13.414;2024-02-14T03:30:22;7.75;;;4.57;;
35648;SDS011;21768;48.562;13.414;2024-02-14T03:32:49;10.45;;;4.47;;
35648;SDS011;21768;48.562;13.414;2024-02-14T03:35:15;10.13;;;5.28;;
35648;SDS011;21768;48.562;13.414;2024-02-14T03:37:42;8.00;;;4.70;;
35648;SDS011;21768;48.562;13.414;2024-02-14T03:40:09;12.88;;;4.95;;
35648;SDS011;21768;48.562;13.414;2024-02-14T03:42:35;11.73;;;4.70;;
35648;SDS011;21768;48.562;13.414;2024-02-14T03:45:00;8.25;;;4.70;;
35648;SDS011;21768;48.562;13.414;2024-02-14T03:47:34;10.18;;;4.90;;
35648;SDS011;21768;48.562;13.414;2024-02-14T03:49:59;8.68;;;4.95;;
35648;SDS011;21768;48.562;13.414;2024-02-14T03:52:25;11.15;;;4.88;;
35648;SDS011;21768;48.562;13.414;2024-02-14T03:54:51;16.58;;;5.63;;
35648;SDS011;21768;48.562;13.414;2024-02-14T03:57:17;9.18;;;4.95;;
35648;SDS011;21768;48.562;13.414;2024-02-14T03:59:43;11.15;;;5.40;;
35648;SDS011;21768;48.562;13.414;2024-02-14T04:02:09;10.40;;;5.15;;
35648;SDS011;21768;48.562;13.414;2024-02-14T04:04:37;10.98;;;5.35;;
35648;SDS011;21768;48.562;13.414;2024-02-14T04:07:06;9.05;;;5.10;;
35648;SDS011;21768;48.562;13.414;2024-02-14T04:09:33;14.63;;;5.40;;
35648;SDS011;21768;48.562;13.414;2024-02-14T04:11:59;13.05;;;5.30;;
35648;SDS011;21768;48.562;13.414;2024-02-14T04:14:25;9.98;;;5.55;;
35648;SDS011;21768;48.562;13.414;2024-02-14T04:16:51;10.52;;;5.43;;
35648;SDS011;21768;48.562;13.414;2024-02-14T04:19:17;7.93;;;4.82;;
35648;SDS011;21768;48.562;13.414;2024-02-14T04:21:43;9.35;;;5.65;;
35648;SDS011;21768;48.562;13.414;2024-02-14T04:24:09;10.80;;;5.82;;
35648;SDS011;21768;48.562;13.414;2024-02-14T04:26:35;16.38;;;6.15;;
35648;SDS011;21768;48.562;13.414;2024-02-14T04:29:01;12.65;;;5.63;;
35648;SDS011;21768;48.562;13.414;2024-02-14T04:31:27;10.75;;;5.78;;
35648;SDS011;21768;48.562;13.414;2024-02-14T04:33:55;14.05;;;6.05;;
35648;SDS011;21768;48.562;13.414;2024-02-14T04:36:24;9.15;;;5.65;;
35648;SDS011;21768;48.562;13.414;2024-02-14T04:38:49;12.50;;;5.82;;
35648;SDS011;21768;48.562;13.414;2024-02-14T04:41:17;8.55;;;4.80;;
35648;SDS011;21768;48.562;13.414;2024-02-14T04:43:42;11.88;;;5.80;;
35648;SDS011;21768;48.562;13.414;2024-02-14T04:46:09;12.80;;;4.97;;
35648;SDS011;21768;48.562;13.414;2024-02-14T04:48:35;11.65;;;5.20;;
35648;SDS011;21768;48.562;13.414;2024-02-14T04:51:02;9.25;;;4.68;;
35648;SDS011;21768;48.562;13.414;2024-02-14T04:53:29;8.98;;;4.90;;
35648;SDS011;21768;48.562;13.414;2024-02-14T04:55:56;9.43;;;5.13;;
35648;SDS011;21768;48.562;13.414;2024-02-14T04:58:21;9.13;;;5.40;;
35648;SDS011;21768;48.562;13.414;2024-02-14T05:00:48;9.98;;;5.32;;
35648;SDS011;21768;48.562;13.414;2024-02-14T05:03:14;12.32;;;5.45;;
35648;SDS011;21768;48.562;13.414;2024-02-14T05:05:40;9.10;;;5.00;;
35648;SDS011;21768;48.562;13.414;2024-02-14T05:08:07;13.43;;;5.75;;
35648;SDS011;21768;48.562;13.414;2024-02-14T05:10:35;9.25;;;5.38;;
35648;SDS011;21768;48.562;13.414;2024-02-14T05:13:01;12.98;;;5.72;;
35648;SDS011;21768;48.562;13.414;2024-02-14T05:15:27;15.63;;;5.80;;
35648;SDS011;21768;48.562;13.414;2024-02-14T05:17:52;12.68;;;6.40;;
35648;SDS011;21768;48.562;13.414;2024-02-14T05:20:18;11.95;;;6.22;;
35648;SDS011;21768;48.562;13.414;2024-02-14T05:22:43;28.95;;;6.10;;
35648;SDS011;21768;48.562;13.414;2024-02-14T05:25:09;14.82;;;6.25;;
35648;SDS011;21768;48.562;13.414;2024-02-14T05:27:35;26.08;;;6.28;;
35648;SDS011;21768;48.562;13.414;2024-02-14T05:30:05;11.93;;;5.80;;
35648;SDS011;21768;48.562;13.414;2024-02-14T05:32:31;14.05;;;5.95;;
35648;SDS011;21768;48.562;13.414;2024-02-14T05:34:59;46.90;;;6.65;;
35648;SDS011;21768;48.562;13.414;2024-02-14T05:37:25;31.00;;;5.82;;
35648;SDS011;21768;48.562;13.414;2024-02-14T05:39:54;20.98;;;6.53;;
35648;SDS011;21768;48.562;13.414;2024-02-14T05:42:20;21.63;;;6.65;;
35648;SDS011;21768;48.562;13.414;2024-02-14T05:44:46;13.75;;;6.78;;
35648;SDS011;21768;48.562;13.414;2024-02-14T05:47:12;20.55;;;6.55;;
35648;SDS011;21768;48.562;13.414;2024-02-14T05:49:41;15.02;;;6.80;;
35648;SDS011;21768;48.562;13.414;2024-02-14T05:52:07;14.40;;;6.85;;
35648;SDS011;21768;48.562;13.414;2024-02-14T05:54:33;19.45;;;6.72;;
35648;SDS011;21768;48.562;13.414;2024-02-14T05:56:59;14.00;;;5.97;;
35648;SDS011;21768;48.562;13.414;2024-02-14T05:59:26;12.20;;;5.80;;
35648;SDS011;21768;48.562;13.414;2024-02-14T06:01:52;14.27;;;5.90;;
35648;SDS011;21768;48.562;13.414;2024-02-14T06:04:18;11.30;;;5.93;;
35648;SDS011;21768;48.562;13.414;2024-02-14T06:06:43;18.02;;;6.00;;
35648;SDS011;21768;48.562;13.414;2024-02-14T06:09:09;12.32;;;5.50;;
35648;SDS011;21768;48.562;13.414;2024-02-14T06:11:37;12.13;;;6.20;;
35648;SDS011;21768;48.562;13.414;2024-02-14T06:14:07;13.48;;;5.82;;
35648;SDS011;21768;48.562;13.414;2024-02-14T06:16:33;13.65;;;5.80;;
35648;SDS011;21768;48.562;13.414;2024-02-14T06:18:59;14.55;;;5.43;;
35648;SDS011;21768;48.562;13.414;2024-02-14T06:21:29;10.85;;;5.47;;
35648;SDS011;21768;48.562;13.414;2024-02-14T06:23:55;13.95;;;5.20;;
35648;SDS011;21768;48.562;13.414;2024-02-14T06:26:23;8.85;;;4.97;;
35648;SDS011;21768;48.562;13.414;2024-02-14T06:28:49;12.32;;;5.95;;
35648;SDS011;21768;48.562;13.414;2024-02-14T06:31:19;14.95;;;5.20;;
35648;SDS011;21768;48.562;13.414;2024-02-14T06:33:48;12.38;;;6.00;;
35648;SDS011;21768;48.562;13.414;2024-02-14T06:36:14;8.38;;;5.15;;
35648;SDS011;21768;48.562;13.414;2024-02-14T06:38:39;10.15;;;5.20;;
35648;SDS011;21768;48.562;13.414;2024-02-14T06:41:05;10.52;;;4.82;;
35648;SDS011;21768;48.562;13.414;2024-02-14T06:43:31;14.88;;;5.60;;
35648;SDS011;21768;48.562;13.414;2024-02-14T06:45:59;9.75;;;5.00;;
35648;SDS011;21768;48.562;13.414;2024-02-14T06:48:38;21.52;;;5.72;;
35648;SDS011;21768;48.562;13.414;2024-02-14T06:51:03;10.60;;;4.90;;
35648;SDS011;21768;48.562;13.414;2024-02-14T06:53:31;11.02;;;4.60;;
35648;SDS011;21768;48.562;13.414;2024-02-14T06:55:56;10.15;;;5.03;;
35648;SDS011;21768;48.562;13.414;2024-02-14T06:58:22;10.85;;;5.35;;
35648;SDS011;21768;48.562;13.414;2024-02-14T07:00:47;11.48;;;5.15;;
35648;SDS011;21768;48.562;13.414;2024-02-14T07:03:13;11.25;;;5.43;;
35648;SDS011;21768;48.562;13.414;2024-02-14T07:05:39;12.32;;;5.65;;
35648;SDS011;21768;48.562;13.414;2024-02-14T07:08:06;13.32;;;5.53;;
35648;SDS011;21768;48.562;13.414;2024-02-14T07:10:32;12.27;;;5.88;;
35648;SDS011;21768;48.562;13.414;2024-02-14T07:12:58;20.38;;;6.28;;
35648;SDS011;21768;48.562;13.414;2024-02-14T07:15:24;11.80;;;5.72;;
35648;SDS011;21768;48.562;13.414;2024-02-14T07:17:53;16.50;;;6.38;;
35648;SDS011;21768;48.562;13.414;2024-02-14T07:20:20;12.98;;;6.53;;
35648;SDS011;21768;48.562;13.414;2024-02-14T07:22:48;13.52;;;5.68;;
35648;SDS011;21768;48.562;13.414;2024-02-14T07:25:21;10.73;;;6.15;;
35648;SDS011;21768;48.562;13.414;2024-02-14T07:27:48;11.45;;;5.75;;
35648;SDS011;21768;48.562;13.414;2024-02-14T07:30:15;10.48;;;6.07;;
35648;SDS011;21768;48.562;13.414;2024-02-14T07:32:42;13.38;;;6.07;;
35648;SDS011;21768;48.562;13.414;2024-02-14T07:35:11;10.77;;;5.57;;
35648;SDS011;21768;48.562;13.414;2024-02-14T07:37:38;11.63;;;6.05;;
35648;SDS011;21768;48.562;13.414;2024-02-14T07:40:04;14.13;;;6.00;;
35648;SDS011;21768;48.562;13.414;2024-02-14T07:42:30;14.32;;;5.65;;
35648;SDS011;21768;48.562;13.414;2024-02-14T07:44:56;10.77;;;5.90;;
35648;SDS011;21768;48.562;13.414;2024-02-14T07:47:22;11.43;;;6.00;;
35648;SDS011;21768;48.562;13.414;2024-02-14T07:49:48;12.48;;;7.25;;
35648;SDS011;21768;48.562;13.414;2024-02-14T07:52:13;12.57;;;7.22;;
35648;SDS011;21768;48.562;13.414;2024-02-14T07:54:41;16.52;;;7.68;;
35648;SDS011;21768;48.562;13.414;2024-02-14T07:57:06;16.83;;;8.75;;
35648;SDS011;21768;48.562;13.414;2024-02-14T07:59:32;17.17;;;7.60;;
35648;SDS011;21768;48.562;13.414;2024-02-14T08:01:58;16.73;;;7.88;;
35648;SDS011;21768;48.562;13.414;2024-02-14T08:04:25;13.98;;;7.45;;
35648;SDS011;21768;48.562;13.414;2024-02-14T08:06:51;15.07;;;6.93;;
35648;SDS011;21768;48.562;13.414;2024-02-14T08:09:17;17.90;;;7.35;;
35648;SDS011;21768;48.562;13.414;2024-02-14T08:11:42;13.85;;;7.03;;
35648;SDS011;21768;48.562;13.414;2024-02-14T08:14:08;14.68;;;6.78;;
35648;SDS011;21768;48.562;13.414;2024-02-14T08:16:33;11.35;;;6.50;;
35648;SDS011;21768;48.562;13.414;2024-02-14T08:18:59;15.43;;;7.40;;
35648;SDS011;21768;48.562;13.414;2024-02-14T08:21:25;15.80;;;7.25;;
35648;SDS011;21768;48.562;13.414;2024-02-14T08:23:51;12.20;;;6.57;;
35648;SDS011;21768;48.562;13.414;2024-02-14T08:26:18;10.15;;;6.63;;
35648;SDS011;21768;48.562;13.414;2024-02-14T08:28:44;14.07;;;6.60;;
35648;SDS011;21768;48.562;13.414;2024-02-14T08:31:10;21.02;;;7.65;;
35648;SDS011;21768;48.562;13.414;2024-02-14T08:33:36;15.18;;;7.53;;
35648;SDS011;21768;48.562;13.414;2024-02-14T08:36:03;15.98;;;6.95;;
35648;SDS011;21768;48.562;13.414;2024-02-14T08:38:28;18.40;;;6.93;;
35648;SDS011;21768;48.562;13.414;2024-02-14T08:40:54;15.30;;;7.13;;
35648;SDS011;21768;48.562;13.414;2024-02-14T08:43:19;17.00;;;8.85;;
35648;SDS011;21768;48.562;13.414;2024-02-14T08:45:44;15.57;;;6.95;;
35648;SDS011;21768;48.562;13.414;2024-02-14T08:48:10;20.25;;;7.68;;
35648;SDS011;21768;48.562;13.414;2024-02-14T08:50:35;14.98;;;7.95;;
35648;SDS011;21768;48.562;13.414;2024-02-14T08:53:01;15.40;;;7.60;;
35648;SDS011;21768;48.562;13.414;2024-02-14T08:55:26;11.60;;;6.70;;
35648;SDS011;21768;48.562;13.414;2024-02-14T08:57:52;14.73;;;7.50;;
35648;SDS011;21768;48.562;13.414;2024-02-14T09:00:18;12.88;;;6.32;;
35648;SDS011;21768;48.562;13.414;2024-02-14T09:02:45;12.55;;;6.40;;
35648;SDS011;21768;48.562;13.414;2024-02-14T09:05:14;13.43;;;6.38;;
35648;SDS011;21768;48.562;13.414;2024-02-14T09:07:42;12.43;;;6.45;;
35648;SDS011;21768;48.562;13.414;2024-02-14T09:10:09;11.40;;;6.50;;
35648;SDS011;21768;48.562;13.414;2024-02-14T09:12:37;15.50;;;5.97;;
35648;SDS011;21768;48.562;13.414;2024-02-14T09:15:04;14.20;;;6.00;;
35648;SDS011;21768;48.562;13.414;2024-02-14T09:17:30;11.60;;;5.80;;
35648;SDS011;21768;48.562;13.414;2024-02-14T09:19:55;14.93;;;6.18;;
35648;SDS011;21768;48.562;13.414;2024-02-14T09:22:21;14.77;;;5.25;;
35648;SDS011;21768;48.562;13.414;2024-02-14T09:24:47;9.65;;;6.13;;
35648;SDS011;21768;48.562;13.414;2024-02-14T09:27:13;30.80;;;14.60;;
35648;SDS011;21768;48.562;13.414;2024-02-14T09:29:39;45.47;;;21.23;;
35648;SDS011;21768;48.562;13.414;2024-02-14T09:32:04;12.75;;;4.68;;
35648;SDS011;21768;48.562;13.414;2024-02-14T09:34:30;11.80;;;4.35;;
35648;SDS011;21768;48.562;13.414;2024-02-14T09:36:56;8.00;;;3.88;;
35648;SDS011;21768;48.562;13.414;2024-02-14T09:39:23;5.88;;;3.90;;
35648;SDS011;21768;48.562;13.414;2024-02-14T09:41:51;37.28;;;17.45;;
35648;SDS011;21768;48.562;13.414;2024-02-14T09:44:20;28.70;;;16.65;;
35648;SDS011;21768;48.562;13.414;2024-02-14T09:46:49;9.73;;;5.65;;
35648;SDS011;21768;48.562;13.414;2024-02-14T09:49:15;13.60;;;6.53;;
35648;SDS011;21768;48.562;13.414;2024-02-14T09:51:42;23.83;;;7.95;;
35648;SDS011;21768;48.562;13.414;2024-02-14T09:54:09;13.10;;;5.25;;
35648;SDS011;21768;48.562;13.414;2024-02-14T09:56:36;8.02;;;3.67;;
35648;SDS011;21768;48.562;13.414;2024-02-14T09:59:02;10.93;;;3.58;;
35648;SDS011;21768;48.562;13.414;2024-02-14T10:01:28;6.32;;;3.60;;
35648;SDS011;21768;48.562;13.414;2024-02-14T10:03:54;13.20;;;5.95;;
35648;SDS011;21768;48.562;13.414;2024-02-14T10:06:19;4.65;;;3.33;;
35648;SDS011;21768;48.562;13.414;2024-02-14T10:08:52;8.82;;;4.30;;
35648;SDS011;21768;48.562;13.414;2024-02-14T10:11:18;9.68;;;4.10;;
35648;SDS011;21768;48.562;13.414;2024-02-14T10:13:47;10.25;;;4.68;;
35648;SDS011;21768;48.562;13.414;2024-02-14T10:16:15;6.78;;;3.80;;
35648;SDS011;21768;48.562;13.414;2024-02-14T10:18:41;6.28;;;3.50;;
35648;SDS011;21768;48.562;13.414;2024-02-14T10:21:08;8.95;;;4.10;;
35648;SDS011;21768;48.562;13.414;2024-02-14T10:23:39;13.20;;;4.25;;
35648;SDS011;21768;48.562;13.414;2024-02-14T10:26:04;9.63;;;4.85;;
35648;SDS011;21768;48.562;13.414;2024-02-14T10:28:30;11.52;;;5.97;;
35648;SDS011;21768;48.562;13.414;2024-02-14T10:30:58;9.23;;;4.85;;
35648;SDS011;21768;48.562;13.414;2024-02-14T10:33:24;8.75;;;4.97;;
35648;SDS011;21768;48.562;13.414;2024-02-14T10:35:54;12.98;;;6.60;;
35648;SDS011;21768;48.562;13.414;2024-02-14T10:38:22;9.48;;;4.55;;
35648;SDS011;21768;48.562;13.414;2024-02-14T10:40:49;7.72;;;4.05;;
35648;SDS011;21768;48.562;13.414;2024-02-14T10:43:16;9.23;;;4.45;;
35648;SDS011;21768;48.562;13.414;2024-02-14T10:45:42;9.98;;;4.15;;
35648;SDS011;21768;48.562;13.414;2024-02-14T10:48:10;7.88;;;4.40;;
35648;SDS011;21768;48.562;13.414;2024-02-14T10:50:37;7.65;;;3.50;;
35648;SDS011;21768;48.562;13.414;2024-02-14T10:53:06;5.43;;;3.30;;
35648;SDS011;21768;48.562;13.414;2024-02-14T10:55:38;6.50;;;3.53;;
35648;SDS011;21768;48.562;13.414;2024-02-14T10:58:07;7.00;;;3.45;;
35648;SDS011;21768;48.562;13.414;2024-02-14T11:00:33;5.97;;;3.08;;
35648;SDS011;21768;48.562;13.414;2024-02-14T11:02:59;5.35;;;2.90;;
35648;SDS011;21768;48.562;13.414;2024-02-14T11:05:25;8.50;;;3.63;;
35648;SDS011;21768;48.562;13.414;2024-02-14T11:07:51;6.53;;;3.17;;
35648;SDS011;21768;48.562;13.414;2024-02-14T11:10:20;5.95;;;3.25;;
35648;SDS011;21768;48.562;13.414;2024-02-14T11:12:47;6.28;;;4.05;;
35648;SDS011;21768;48.562;13.414;2024-02-14T11:15:16;5.13;;;2.60;;
35648;SDS011;21768;48.562;13.414;2024-02-14T11:17:49;9.18;;;4.22;;
35648;SDS011;21768;48.562;13.414;2024-02-14T11:22:56;6.72;;;3.63;;
35648;SDS011;21768;48.562;13.414;2024-02-14T11:25:28;6.90;;;3.50;;
35648;SDS011;21768;48.562;13.414;2024-02-14T11:27:55;8.30;;;2.95;;
35648;SDS011;21768;48.562;13.414;2024-02-14T11:30:34;7.28;;;3.10;;
35648;SDS011;21768;48.562;13.414;2024-02-14T11:35:41;12.00;;;3.60;;
35648;SDS011;21768;48.562;13.414;2024-02-14T11:38:10;5.82;;;2.85;;
35648;SDS011;21768;48.562;13.414;2024-02-14T11:40:36;3.70;;;2.28;;
35648;SDS011;21768;48.562;13.414;2024-02-14T11:43:16;4.57;;;2.42;;
35648;SDS011;21768;48.562;13.414;2024-02-14T11:45:43;5.13;;;2.15;;
35648;SDS011;21768;48.562;13.414;2024-02-14T11:48:11;4.85;;;2.20;;
35648;SDS011;21768;48.562;13.414;2024-02-14T11:50:43;4.65;;;2.20;;
35648;SDS011;21768;48.562;13.414;2024-02-14T11:53:14;5.53;;;2.08;;
35648;SDS011;21768;48.562;13.414;2024-02-14T11:55:46;5.57;;;2.35;;
35648;SDS011;21768;48.562;13.414;2024-02-14T11:58:14;8.00;;;2.70;;
35648;SDS011;21768;48.562;13.414;2024-02-14T12:00:41;5.30;;;3.00;;
35648;SDS011;21768;48.562;13.414;2024-02-14T12:03:11;5.57;;;2.38;;
35648;SDS011;21768;48.562;13.414;2024-02-14T12:05:40;5.13;;;2.25;;
35648;SDS011;21768;48.562;13.414;2024-02-14T12:08:09;4.82;;;2.60;;
35648;SDS011;21768;48.562;13.414;2024-02-14T12:10:35;14.30;;;2.95;;
35648;SDS011;21768;48.562;13.414;2024-02-14T12:13:10;7.30;;;2.65;;
35648;SDS011;21768;48.562;13.414;2024-02-14T12:15:44;5.18;;;2.70;;
35648;SDS011;21768;48.562;13.414;2024-02-14T12:18:10;5.38;;;3.50;;
35648;SDS011;21768;48.562;13.414;2024-02-14T12:20:39;7.82;;;3.55;;
35648;SDS011;21768;48.562;13.414;2024-02-14T12:23:06;9.15;;;3.80;;
35648;SDS011;21768;48.562;13.414;2024-02-14T12:25:32;11.10;;;3.92;;
35648;SDS011;21768;48.562;13.414;2024-02-14T12:27:58;5.82;;;3.20;;
35648;SDS011;21768;48.562;13.414;2024-02-14T12:33:21;9.80;;;4.53;;
35648;SDS011;21768;48.562;13.414;2024-02-14T12:35:47;8.40;;;4.40;;
35648;SDS011;21768;48.562;13.414;2024-02-14T12:38:14;6.53;;;3.65;;
35648;SDS011;21768;48.562;13.414;2024-02-14T12:40:41;7.55;;;3.47;;
35648;SDS011;21768;48.562;13.414;2024-02-14T12:43:08;7.80;;;4.07;;
35648;SDS011;21768;48.562;13.414;2024-02-14T12:45:34;9.73;;;3.30;;
35648;SDS011;21768;48.562;13.414;2024-02-14T12:48:00;7.80;;;4.18;;
35648;SDS011;21768;48.562;13.414;2024-02-14T12:50:26;7.32;;;4.35;;
35648;SDS011;21768;48.562;13.414;2024-02-14T12:52:51;7.22;;;3.40;;
35648;SDS011;21768;48.562;13.414;2024-02-14T12:55:17;5.63;;;2.78;;
35648;SDS011;21768;48.562;13.414;2024-02-14T12:57:43;6.60;;;2.85;;
35648;SDS011;21768;48.562;13.414;2024-02-14T13:00:09;9.55;;;3.90;;
35648;SDS011;21768;48.562;13.414;2024-02-14T13:02:35;5.95;;;2.80;;
35648;SDS011;21768;48.562;13.414;2024-02-14T13:05:01;6.78;;;2.58;;
35648;SDS011;21768;48.562;13.414;2024-02-14T13:07:29;7.38;;;2.50;;
35648;SDS011;21768;48.562;13.414;2024-02-14T13:09:56;8.93;;;4.07;;
35648;SDS011;21768;48.562;13.414;2024-02-14T13:12:21;4.43;;;2.80;;
35648;SDS011;21768;48.562;13.414;2024-02-14T13:14:47;6.85;;;3.55;;
35648;SDS011;21768;48.562;13.414;2024-02-14T13:17:12;7.13;;;3.00;;
35648;SDS011;21768;48.562;13.414;2024-02-14T13:19:38;6.63;;;3.50;;
35648;SDS011;21768;48.562;13.414;2024-02-14T13:22:04;6.05;;;3.13;;
35648;SDS011;21768;48.562;13.414;2024-02-14T13:24:30;6.40;;;3.30;;
35648;SDS011;21768;48.562;13.414;2024-02-14T13:26:56;5.88;;;2.85;;
35648;SDS011;21768;48.562;13.414;2024-02-14T13:29:23;5.65;;;2.45;;
35648;SDS011;21768;48.562;13.414;2024-02-14T13:31:49;5.47;;;2.53;;
35648;SDS011;21768;48.562;13.414;2024-02-14T13:34:16;5.57;;;2.70;;
35648;SDS011;21768;48.562;13.414;2024-02-14T13:36:43;10.88;;;3.13;;
35648;SDS011;21768;48.562;13.414;2024-02-14T13:39:09;6.25;;;2.90;;
35648;SDS011;21768;48.562;13.414;2024-02-14T13:41:34;4.68;;;2.50;;
35648;SDS011;21768;48.562;13.414;2024-02-14T13:44:02;6.97;;;2.33;;
35648;SDS011;21768;48.562;13.414;2024-02-14T13:46:28;6.00;;;2.20;;
35648;SDS011;21768;48.562;13.414;2024-02-14T13:48:54;8.60;;;2.72;;
35648;SDS011;21768;48.562;13.414;2024-02-14T13:51:19;7.13;;;3.40;;
35648;SDS011;21768;48.562;13.414;2024-02-14T13:53:45;7.85;;;2.60;;
35648;SDS011;21768;48.562;13.414;2024-02-14T13:56:11;12.77;;;5.70;;
35648;SDS011;21768;48.562;13.414;2024-02-14T13:58:36;10.65;;;3.80;;
35648;SDS011;21768;48.562;13.414;2024-02-14T14:01:04;8.70;;;3.13;;
35648;SDS011;21768;48.562;13.414;2024-02-14T14:03:29;9.65;;;2.30;;
35648;SDS011;21768;48.562;13.414;2024-02-14T14:05:55;10.07;;;3.00;;
35648;SDS011;21768;48.562;13.414;2024-02-14T14:08:22;7.07;;;2.90;;
35648;SDS011;21768;48.562;13.414;2024-02-14T14:10:48;8.48;;;3.08;;
35648;SDS011;21768;48.562;13.414;2024-02-14T14:13:14;4.80;;;2.35;;
35648;SDS011;21768;48.562;13.414;2024-02-14T14:15:39;7.78;;;2.90;;
35648;SDS011;21768;48.562;13.414;2024-02-14T14:18:06;6.05;;;3.30;;
35648;SDS011;21768;48.562;13.414;2024-02-14T14:20:33;7.30;;;2.85;;
35648;SDS011;21768;48.562;13.414;2024-02-14T14:22:59;5.35;;;2.72;;
35648;SDS011;21768;48.562;13.414;2024-02-14T14:25:25;6.53;;;2.72;;
35648;SDS011;21768;48.562;13.414;2024-02-14T14:27:53;5.03;;;2.50;;
35648;SDS011;21768;48.562;13.414;2024-02-14T14:30:19;4.45;;;2.50;;